Time;durP1;ratioP1;P1;durP2;ratioP2;P2;SDS_P1;SDS_P2;PMS_P1;PMS_P2;Temp;Humidity;BMP_temperature;BMP_pressure;BME280_temperature;BME280_humidity;BME280_pressure;Samples;Min_cycle;Max_cycle;Signal;HPM_P1;HPM_P2
2024/01/19 00:06:21;;;;;;;21.9;11.2;;;;;;;-0.1;88.16;97575;;;;
2024/01/19 00:16:21;;;;;;;20.8;12.5;;;;;;;-0.21;88.69;97605;;;;
2024/01/19 00:27:21;;;;;;;20.8;12.5;;;;;;;-0.14;88.61;97623.333333333;;;;
2024/01/19 00:38:21;;;;;;;20.8;12.5;;;;;;;-0.2;88.87;97663.333333333;;;;
2024/01/19 00:48:21;;;;;;;30.4;15.7;;;;;;;-0.26;89.18;97680;;;;
2024/01/19 00:58:21;;;;;;;30.4;15.7;;;;;;;-0.27;89.34;97686.666666667;;;;
2024/01/19 01:09:21;;;;;;;30.4;15.7;;;;;;;0.01;89.07;97698.333333333;;;;
2024/01/19 01:20:21;;;;;;;23.9;13.7;;;;;;;0.04;88.36;97696.666666667;;;;
2024/01/19 01:30:21;;;;;;;23.9;13.7;;;;;;;-0.02;88.43;97738.333333333;;;;
2024/01/19 01:40:21;;;;;;;28.9;15.9;;;;;;;-0.05;88.14;97758.333333333;;;;
2024/01/19 01:50:21;;;;;;;28.9;15.9;;;;;;;-0.12;87.64;97760;;;;
2024/01/19 02:01:21;;;;;;;28.9;15.9;;;;;;;-0.11;87.26;97760;;;;
2024/01/19 02:12:21;;;;;;;20.5;11.9;;;;;;;-0.15;87.18;97773.333333333;;;;
2024/01/19 02:23:21;;;;;;;20.5;11.9;;;;;;;-0.15;87.41;97790;;;;
2024/01/19 02:33:21;;;;;;;20.5;11.9;;;;;;;-0.26;87.91;97786.666666667;;;;
2024/01/19 02:43:21;;;;;;;20.2;12.1;;;;;;;-0.25;87.37;97795;;;;
2024/01/19 02:54:21;;;;;;;20.2;12.1;;;;;;;-0.25;87.74;97826.666666667;;;;
2024/01/19 03:05:21;;;;;;;20.2;12.1;;;;;;;-0.29;87.68;97838.333333333;;;;
2024/01/19 03:15:21;;;;;;;21.4;12.1;;;;;;;-0.34;87.35;97861.666666667;;;;
2024/01/19 03:25:21;;;;;;;21.4;12.1;;;;;;;-0.23;87.48;97876.666666667;;;;
2024/01/19 03:36:21;;;;;;;21.4;12.1;;;;;;;-0.27;87.49;97890;;;;
2024/01/19 03:47:21;;;;;;;25.2;13.7;;;;;;;-0.43;87.35;97903.333333333;;;;
2024/01/19 03:57:21;;;;;;;25.2;13.7;;;;;;;-0.36;87.55;97918.333333333;;;;
2024/01/19 04:07:21;;;;;;;25.2;13.7;;;;;;;-0.5;87.03;97958.333333333;;;;
2024/01/19 04:18:21;;;;;;;23.4;13.4;;;;;;;-0.49;86.35;97958.333333333;;;;
2024/01/19 04:28:21;;;;;;;23.4;13.4;;;;;;;-0.73;84.89;97956.666666667;;;;
2024/01/19 04:39:21;;;;;;;23.4;13.4;;;;;;;-1.17;82.11;97993.333333333;;;;
2024/01/19 04:49:21;;;;;;;16.4;10.2;;;;;;;-1.36;82.51;98033.333333333;;;;
2024/01/19 04:59:21;;;;;;;16.4;10.2;;;;;;;-1.31;82.11;98045;;;;
2024/01/19 05:10:21;;;;;;;13.9;8;;;;;;;-1.41;82.53;98078.333333333;;;;
2024/01/19 05:21:21;;;;;;;13.9;8;;;;;;;-1.28;83.09;98090;;;;
2024/01/19 05:32:21;;;;;;;13.9;8;;;;;;;-1.33;83.28;98106.666666667;;;;
2024/01/19 05:43:21;;;;;;;12.7;7;;;;;;;-1.41;84.34;98125;;;;
2024/01/19 05:53:21;;;;;;;12.7;7;;;;;;;-1.33;84.13;98123.333333333;;;;
2024/01/19 06:04:21;;;;;;;12.7;7;;;;;;;-1.41;83.79;98138.333333333;;;;
2024/01/19 06:15:21;;;;;;;20.3;8.8;;;;;;;-1.51;84.04;98173.333333333;;;;
2024/01/19 06:26:21;;;;;;;20.3;8.8;;;;;;;-1.5;84.67;98190;;;;
2024/01/19 06:36:21;;;;;;;20.3;8.8;;;;;;;-1.54;84.82;98195;;;;
2024/01/19 06:47:21;;;;;;;24;14.1;;;;;;;-1.39;85.25;98201.666666667;;;;
2024/01/19 06:57:21;;;;;;;24;14.1;;;;;;;-1.41;84.75;98211.666666667;;;;
2024/01/19 07:08:21;;;;;;;24;14.1;;;;;;;-1.34;84.29;98221.666666667;;;;
2024/01/19 07:19:21;;;;;;;15.3;8.6;;;;;;;-1.25;83.59;98220;;;;
2024/01/19 07:29:21;;;;;;;15.3;8.6;;;;;;;-1.12;82.96;98235;;;;
2024/01/19 07:40:21;;;;;;;12.8;5.2;;;;;;;-1.12;81.24;98220;;;;
2024/01/19 07:51:22;;;;;;;12.8;5.2;;;;;;;-1.03;80.86;98236.666666667;;;;
2024/01/19 08:01:21;;;;;;;12.8;5.2;;;;;;;-1;80.35;98261.666666667;;;;
2024/01/19 08:12:21;;;;;;;10.9;5.6;;;;;;;-0.88;79.9;98258.333333333;;;;
2024/01/19 08:22:21;;;;;;;10.9;5.6;;;;;;;-0.79;80.1;98275;;;;
2024/01/19 08:33:22;;;;;;;10.9;5.6;;;;;;;-0.64;78.97;98301.666666667;;;;
2024/01/19 08:44:22;;;;;;;16.5;7.2;;;;;;;-0.74;79.22;98343.333333333;;;;
2024/01/19 08:54:22;;;;;;;16.5;7.2;;;;;;;-0.66;79.39;98378.333333333;;;;
2024/01/19 09:05:21;;;;;;;16.5;7.2;;;;;;;-0.64;78.06;98416.666666667;;;;
2024/01/19 09:16:21;;;;;;;17;9;;;;;;;-0.61;76.64;98438.333333333;;;;
2024/01/19 09:26:21;;;;;;;17;9;;;;;;;-0.56;76.29;98440;;;;
2024/01/19 09:36:21;;;;;;;17;9;;;;;;;-0.41;77.02;98461.666666667;;;;
2024/01/19 09:46:21;;;;;;;19.4;8.1;;;;;;;-0.39;75.36;98490;;;;
2024/01/19 09:57:21;;;;;;;19.4;8.1;;;;;;;-0.34;75.44;98478.333333333;;;;
2024/01/19 10:08:21;;;;;;;19.4;8.1;;;;;;;-0.21;75.24;98476.666666667;;;;
2024/01/19 10:19:21;;;;;;;19.3;8.7;;;;;;;0.08;75.38;98478.333333333;;;;
2024/01/19 10:30:21;;;;;;;19.3;8.7;;;;;;;-0.08;75.91;98493.333333333;;;;
2024/01/19 10:41:21;;;;;;;18.5;8.9;;;;;;;-0.3;74.08;98488.333333333;;;;
2024/01/19 10:51:21;;;;;;;18.5;8.9;;;;;;;0;73.25;98491.666666667;;;;
2024/01/19 11:02:21;;;;;;;18.5;8.9;;;;;;;0.3;72.68;98485;;;;
2024/01/19 11:13:21;;;;;;;14.7;9.3;;;;;;;0.27;73.8;98506.666666667;;;;
2024/01/19 11:24:21;;;;;;;14.7;9.3;;;;;;;-0.09;74.12;98525;;;;
2024/01/19 11:34:21;;;;;;;14.7;9.3;;;;;;;0.17;75.04;98515;;;;
2024/01/19 11:45:21;;;;;;;16.4;10;;;;;;;0.25;73.33;98515;;;;
2024/01/19 11:55:22;;;;;;;16.4;10;;;;;;;0.24;73.31;98515;;;;
2024/01/19 12:05:21;;;;;;;16.4;10;;;;;;;-0.04;74.21;98508.333333333;;;;
2024/01/19 12:15:21;;;;;;;16.8;8.8;;;;;;;0.03;75.18;98508.333333333;;;;
2024/01/19 12:26:21;;;;;;;16.8;8.8;;;;;;;-0.06;76.3;98536.666666667;;;;
2024/01/19 12:36:21;;;;;;;16.8;8.8;;;;;;;-0.03;75.9;98541.666666667;;;;
2024/01/19 12:46:23;;;;;;;18.1;11;;;;;;;0.03;76.68;98560;;;;
2024/01/19 12:57:22;;;;;;;18.1;11;;;;;;;-0.07;77.36;98580;;;;
2024/01/19 13:08:21;;;;;;;17.5;11;;;;;;;-0.22;77.4;98590;;;;
2024/01/19 13:19:21;;;;;;;17.5;11;;;;;;;-0.13;77.25;98596.666666667;;;;
2024/01/19 13:30:22;;;;;;;17.5;11;;;;;;;-0.35;77.98;98610;;;;
2024/01/19 13:40:21;;;;;;;17.5;10.3;;;;;;;-0.67;79.03;98615;;;;
2024/01/19 13:51:21;;;;;;;17.5;10.3;;;;;;;-0.78;79.77;98621.666666667;;;;
2024/01/19 14:01:21;;;;;;;17.5;10.3;;;;;;;-0.72;80.31;98621.666666667;;;;
2024/01/19 14:12:21;;;;;;;17;9.7;;;;;;;-0.79;79.55;98630;;;;
2024/01/19 14:23:21;;;;;;;17;9.7;;;;;;;-0.96;80.33;98645;;;;
2024/01/19 14:33:21;;;;;;;17;9.7;;;;;;;-0.97;80.55;98643.333333333;;;;
2024/01/19 14:44:21;;;;;;;17;9.7;;;;;;;-1.05;80.15;98643.333333333;;;;
2024/01/19 14:55:24;;;;;;;17;9.7;;;;;;;-1.43;81.16;98655;;;;
2024/01/19 15:06:21;;;;;;;17;9.7;;;;;;;-1.72;81.76;98665;;;;
2024/01/19 15:16:21;;;;;;;20.4;11.9;;;;;;;-2.06;82.54;98666.666666667;;;;
2024/01/19 15:26:23;;;;;;;20.4;11.9;;;;;;;-2.22;81.86;98686.666666667;;;;
2024/01/19 15:37:21;;;;;;;20.4;11.9;;;;;;;-2.61;82.85;98698.333333333;;;;
2024/01/19 15:48:21;;;;;;;24.9;13.7;;;;;;;-2.77;83.46;98710;;;;
2024/01/19 15:59:21;;;;;;;24.9;13.7;;;;;;;-2.91;83.71;98716.666666667;;;;
2024/01/19 16:10:21;;;;;;;24.2;12.6;;;;;;;-3.01;84.23;98726.666666667;;;;
2024/01/19 16:20:21;;;;;;;24.2;12.6;;;;;;;-3.02;84.12;98746.666666667;;;;
2024/01/19 16:31:21;;;;;;;24.2;12.6;;;;;;;-3.11;84.19;98758.333333333;;;;
2024/01/19 16:42:21;;;;;;;21.4;11.9;;;;;;;-3.09;84.03;98768.333333333;;;;
2024/01/19 16:52:21;;;;;;;21.4;11.9;;;;;;;-3.09;83.64;98790;;;;
2024/01/19 17:02:21;;;;;;;21.4;11.9;;;;;;;-2.81;83.68;98806.666666667;;;;
2024/01/19 17:12:21;;;;;;;22.1;12.3;;;;;;;-2.51;83.25;98825;;;;
2024/01/19 17:23:21;;;;;;;22.1;12.3;;;;;;;-2.31;81.72;98833.333333333;;;;
2024/01/19 17:34:21;;;;;;;22.1;12.3;;;;;;;-2.18;81.3;98848.333333333;;;;
2024/01/19 17:44:21;;;;;;;15.5;8;;;;;;;-1.92;80.72;98865;;;;
2024/01/19 17:55:21;;;;;;;15.5;8;;;;;;;-1.59;79.71;98866.666666667;;;;
2024/01/19 18:05:21;;;;;;;15.5;8;;;;;;;-1.43;78.75;98895;;;;
2024/01/19 18:16:21;;;;;;;15.7;9.5;;;;;;;-1.23;78.57;98913.333333333;;;;
2024/01/19 18:26:26;;;;;;;15.7;9.5;;;;;;;-1.3;78.79;98926.666666667;;;;
2024/01/19 18:36:21;;;;;;;15.7;9.5;;;;;;;-1.33;79.35;98955;;;;
2024/01/19 18:47:21;;;;;;;25.6;13.6;;;;;;;-1.4;80.02;98980;;;;
2024/01/19 18:57:21;;;;;;;25.6;13.6;;;;;;;-1.4;80.28;98996.666666667;;;;
2024/01/19 19:07:21;;;;;;;26.9;15.4;;;;;;;-1.35;80.6;98998.333333333;;;;
2024/01/19 19:18:21;;;;;;;26.9;15.4;;;;;;;-1.17;79.88;99015;;;;
2024/01/19 19:28:21;;;;;;;26.9;15.4;;;;;;;-0.96;78.66;99033.333333333;;;;
2024/01/19 19:39:23;;;;;;;15.9;9.6;;;;;;;-0.88;77.16;99060;;;;
2024/01/19 19:49:22;;;;;;;15.9;9.6;;;;;;;-0.83;77.01;99068.333333333;;;;
2024/01/19 20:00:21;;;;;;;15.9;9.6;;;;;;;-0.78;76.13;99071.666666667;;;;
2024/01/19 20:10:21;;;;;;;16.5;9.1;;;;;;;-0.77;75.95;99083.333333333;;;;
2024/01/19 20:21:21;;;;;;;16.5;9.1;;;;;;;-0.78;76.47;99103.333333333;;;;
2024/01/19 20:31:21;;;;;;;16.5;9.1;;;;;;;-0.76;76.42;99111.666666667;;;;
2024/01/19 20:42:21;;;;;;;14.9;8;;;;;;;-0.78;76.86;99115;;;;
2024/01/19 20:53:22;;;;;;;14.9;8;;;;;;;-0.84;76.72;99123.333333333;;;;
2024/01/19 21:03:22;;;;;;;14.9;8;;;;;;;-0.8;76.55;99133.333333333;;;;
2024/01/19 21:13:21;;;;;;;16.1;7.7;;;;;;;-0.76;75.85;99146.666666667;;;;
2024/01/19 21:24:21;;;;;;;16.1;7.7;;;;;;;-0.74;75.3;99150;;;;
2024/01/19 21:34:21;;;;;;;16.1;7.7;;;;;;;-0.75;75.28;99165;;;;
2024/01/19 21:45:21;;;;;;;15.7;6.8;;;;;;;-0.73;75.95;99180;;;;
2024/01/19 21:55:22;;;;;;;15.7;6.8;;;;;;;-0.76;76.63;99186.666666667;;;;
2024/01/19 22:05:21;;;;;;;15.7;6.8;;;;;;;-0.69;76.63;99198.333333333;;;;
2024/01/19 22:16:21;;;;;;;14.3;7.8;;;;;;;-0.78;76.66;99211.666666667;;;;
2024/01/19 22:26:21;;;;;;;14.3;7.8;;;;;;;-0.96;76.99;99235;;;;
2024/01/19 22:36:21;;;;;;;14.3;7.8;;;;;;;-1.01;76.95;99248.333333333;;;;
2024/01/19 22:47:21;;;;;;;17.3;8.6;;;;;;;-0.88;76.9;99248.333333333;;;;
2024/01/19 22:58:21;;;;;;;17.3;8.6;;;;;;;-0.94;76.6;99255;;;;
2024/01/19 23:08:21;;;;;;;14.8;6.7;;;;;;;-1.09;76.69;99248.333333333;;;;
2024/01/19 23:18:21;;;;;;;14.8;6.7;;;;;;;-1.04;76.66;99245;;;;
2024/01/19 23:29:22;;;;;;;14.8;6.7;;;;;;;-1.13;77.56;99243.333333333;;;;
2024/01/19 23:39:22;;;;;;;12.8;6.4;;;;;;;-1.01;77.56;99265;;;;
2024/01/19 23:50:21;;;;;;;12.8;6.4;;;;;;;-0.99;77.36;99278.333333333;;;;
